createdAt,value
2023-02-03T00:01:32.254Z,42.90
2023-02-03T00:04:07.230Z,42.80
2023-02-03T00:06:42.526Z,42.60
2023-02-03T00:09:17.745Z,42.70
2023-02-03T00:11:53.850Z,42.60
2023-02-03T00:14:28.730Z,42.70
2023-02-03T00:17:04.324Z,42.70
2023-02-03T00:19:39.140Z,42.80
2023-02-03T00:22:13.978Z,42.70
2023-02-03T00:24:48.835Z,42.60
2023-02-03T00:27:23.690Z,42.70
2023-02-03T00:29:58.571Z,42.60
2023-02-03T00:32:33.599Z,42.60
2023-02-03T00:35:08.659Z,42.60
2023-02-03T00:37:44.764Z,42.60
2023-02-03T00:40:20.875Z,42.70
2023-02-03T00:42:55.918Z,42.60
2023-02-03T00:45:30.849Z,42.30
2023-02-03T00:48:06.421Z,42.10
2023-02-03T00:50:41.317Z,42.20
2023-02-03T00:53:16.167Z,42.30
2023-02-03T00:55:52.066Z,42.50
2023-02-03T00:58:27.105Z,42.60
2023-02-03T01:01:01.979Z,42.70
2023-02-03T01:03:37.480Z,42.60
2023-02-03T01:06:20.839Z,42.70
2023-02-03T01:08:55.911Z,42.90
2023-02-03T01:11:32.733Z,42.90
2023-02-03T01:14:07.647Z,42.90
2023-02-03T01:16:44.311Z,42.70
2023-02-03T01:19:19.241Z,42.70
2023-02-03T01:21:54.242Z,42.60
2023-02-03T01:24:30.878Z,43.00
2023-02-03T01:27:06.267Z,43.30
2023-02-03T01:29:41.143Z,43.20
2023-02-03T01:32:16.052Z,43.50
2023-02-03T01:34:50.920Z,43.50
2023-02-03T01:37:25.812Z,43.50
2023-02-03T01:40:02.565Z,43.40
2023-02-03T01:42:37.410Z,43.70
2023-02-03T01:45:13.569Z,43.70
2023-02-03T01:47:51.093Z,43.70
2023-02-03T01:50:34.156Z,43.80
2023-02-03T01:53:12.406Z,43.90
2023-02-03T01:55:49.958Z,44.00
2023-02-03T01:58:32.212Z,44.10
2023-02-03T02:01:07.345Z,44.10
2023-02-03T02:03:56.896Z,43.80
2023-02-03T02:06:31.872Z,43.70
2023-02-03T02:09:07.801Z,43.50
2023-02-03T02:11:42.787Z,43.40
2023-02-03T02:14:17.927Z,43.60
2023-02-03T02:17:11.565Z,43.90
2023-02-03T02:20:06.899Z,44.60
2023-02-03T02:23:28.872Z,45.20
2023-02-03T02:26:38.361Z,44.50
2023-02-03T02:29:45.241Z,44.50
2023-02-03T02:32:37.072Z,44.60
2023-02-03T02:35:28.808Z,44.70
2023-02-03T02:38:39.313Z,44.50
2023-02-03T02:41:34.753Z,44.80
2023-02-03T02:44:24.062Z,44.70
2023-02-03T02:47:06.340Z,45.00
2023-02-03T02:50:07.214Z,45.00
2023-02-03T02:52:46.216Z,44.80
2023-02-03T02:55:31.700Z,44.70
2023-02-03T02:58:14.094Z,44.50
2023-02-03T03:00:48.980Z,44.20
2023-02-03T03:03:24.527Z,44.20
2023-02-03T03:06:08.283Z,44.20
2023-02-03T03:09:01.279Z,44.10
2023-02-03T03:11:45.196Z,43.80
2023-02-03T03:14:22.616Z,43.70
2023-02-03T03:17:02.702Z,43.90
2023-02-03T03:19:47.267Z,43.90
2023-02-03T03:22:30.277Z,44.00
2023-02-03T03:25:16.863Z,44.30
2023-02-03T03:28:05.734Z,44.10
2023-02-03T03:30:41.032Z,44.00
2023-02-03T03:33:16.015Z,44.00
2023-02-03T03:36:01.178Z,44.00
2023-02-03T03:38:53.552Z,44.00
2023-02-03T03:41:49.107Z,43.80
2023-02-03T03:44:37.594Z,43.70
2023-02-03T03:47:44.966Z,43.50
2023-02-03T03:50:30.423Z,43.30
2023-02-03T03:53:07.578Z,43.30
2023-02-03T03:55:47.295Z,42.80
2023-02-03T03:58:32.465Z,42.50
2023-02-03T04:01:08.486Z,42.40
2023-02-03T04:03:55.846Z,42.40
2023-02-03T04:06:30.759Z,42.30
2023-02-03T04:09:06.250Z,42.20
2023-02-03T04:11:59.729Z,42.40
2023-02-03T04:14:40.773Z,42.50
2023-02-03T04:17:15.750Z,42.80
2023-02-03T04:19:50.683Z,43.40
2023-02-03T04:22:25.555Z,43.80
2023-02-03T04:25:00.455Z,44.60
2023-02-03T04:27:36.077Z,44.80
2023-02-03T04:30:12.473Z,45.20
2023-02-03T04:32:47.748Z,45.40
2023-02-03T04:35:22.653Z,46.20
2023-02-03T04:37:57.577Z,46.80
2023-02-03T04:40:34.728Z,47.30
2023-02-03T04:43:09.924Z,47.40
2023-02-03T04:45:44.815Z,47.70
2023-02-03T04:48:19.711Z,48.50
2023-02-03T04:50:54.601Z,49.50
2023-02-03T04:53:30.336Z,50.70
2023-02-03T04:56:05.626Z,50.80
2023-02-03T04:58:40.523Z,51.00
2023-02-03T05:01:15.485Z,51.10
2023-02-03T05:03:50.445Z,51.90
2023-02-03T05:06:32.891Z,52.80
2023-02-03T05:09:07.755Z,52.70
2023-02-03T05:11:42.658Z,52.80
2023-02-03T05:14:17.505Z,53.50
2023-02-03T05:16:52.454Z,53.60
2023-02-03T05:19:27.385Z,54.20
2023-02-03T05:22:02.291Z,54.50
2023-02-03T05:24:37.152Z,54.80
2023-02-03T05:27:12.056Z,54.50
2023-02-03T05:29:46.943Z,54.40
2023-02-03T05:32:21.803Z,54.40
2023-02-03T05:34:56.718Z,54.90
2023-02-03T05:37:31.586Z,55.10
2023-02-03T05:40:26.352Z,54.20
2023-02-03T05:43:01.732Z,54.60
2023-02-03T05:45:36.811Z,54.60
2023-02-03T05:48:12.300Z,55.00
2023-02-03T05:50:47.285Z,55.40
2023-02-03T05:53:22.588Z,56.30
2023-02-03T05:55:57.538Z,57.00
2023-02-03T05:58:32.450Z,57.20
2023-02-03T06:01:07.456Z,57.80
2023-02-03T06:03:45.015Z,58.10
2023-02-03T06:06:21.089Z,58.20
2023-02-03T06:08:57.072Z,57.50
2023-02-03T06:11:33.530Z,57.20
2023-02-03T06:14:08.485Z,55.90
2023-02-03T06:16:43.495Z,56.20
2023-02-03T06:19:18.445Z,57.00
2023-02-03T06:21:53.485Z,55.80
2023-02-03T06:24:28.454Z,56.30
2023-02-03T06:27:03.432Z,56.00
2023-02-03T06:29:38.445Z,56.20
2023-02-03T06:32:13.383Z,56.60
2023-02-03T06:34:48.358Z,57.80
2023-02-03T06:37:24.809Z,58.10
2023-02-03T06:39:59.767Z,58.70
2023-02-03T06:42:34.738Z,58.30
2023-02-03T06:45:10.269Z,58.30
2023-02-03T06:47:46.059Z,58.40
2023-02-03T06:50:21.083Z,58.70
2023-02-03T06:52:56.069Z,58.90
2023-02-03T06:55:31.077Z,58.80
2023-02-03T06:58:06.197Z,58.60
2023-02-03T07:00:41.151Z,59.00
2023-02-03T07:03:16.035Z,58.70
2023-02-03T07:05:50.970Z,59.50
2023-02-03T07:08:25.845Z,59.80
2023-02-03T07:11:00.790Z,59.80
2023-02-03T07:13:35.845Z,60.40
2023-02-03T07:16:10.742Z,61.10
2023-02-03T07:18:47.897Z,61.40
2023-02-03T07:21:23.481Z,60.60
2023-02-03T07:23:58.788Z,60.00
2023-02-03T07:26:33.790Z,59.80
2023-02-03T07:29:08.729Z,60.20
2023-02-03T07:31:43.663Z,59.90
2023-02-03T07:34:18.569Z,60.40
2023-02-03T07:36:53.430Z,59.80
2023-02-03T07:39:28.367Z,59.30
2023-02-03T07:42:03.239Z,58.60
2023-02-03T07:44:41.616Z,58.70
2023-02-03T07:47:16.573Z,58.90
2023-02-03T07:49:51.474Z,58.80
2023-02-03T07:52:26.466Z,58.50
2023-02-03T07:55:01.963Z,57.80
2023-02-03T07:57:37.302Z,58.40
2023-02-03T08:00:14.991Z,57.90
2023-02-03T08:02:50.145Z,57.70
2023-02-03T08:05:25.035Z,58.70
2023-02-03T08:07:59.966Z,58.80
2023-02-03T08:10:34.927Z,59.10
2023-02-03T08:13:10.072Z,58.70
2023-02-03T08:15:45.108Z,58.10
2023-02-03T08:18:20.105Z,57.70
2023-02-03T08:20:55.083Z,56.80
2023-02-03T08:23:30.039Z,56.70
2023-02-03T08:26:05.113Z,55.60
2023-02-03T08:28:40.049Z,56.70
2023-02-03T08:31:15.043Z,57.00
2023-02-03T08:33:50.014Z,57.50
2023-02-03T08:36:25.671Z,57.30
2023-02-03T08:39:00.583Z,56.90
2023-02-03T08:41:35.571Z,57.10
2023-02-03T08:44:10.547Z,56.00
2023-02-03T08:46:49.802Z,56.10
2023-02-03T08:49:27.709Z,55.90
2023-02-03T08:52:02.670Z,56.00
2023-02-03T08:54:37.761Z,55.30
2023-02-03T08:57:12.821Z,55.40
2023-02-03T08:59:47.807Z,55.20
2023-02-03T09:02:22.715Z,55.20
2023-02-03T09:04:58.096Z,54.90
2023-02-03T09:07:33.061Z,54.90
2023-02-03T09:10:08.275Z,54.70
2023-02-03T09:12:43.235Z,55.30
2023-02-03T09:15:18.323Z,56.90
2023-02-03T09:17:55.365Z,57.20
2023-02-03T09:20:30.781Z,56.80
2023-02-03T09:23:06.005Z,57.00
2023-02-03T09:25:41.607Z,56.20
2023-02-03T09:28:17.490Z,55.40
2023-02-03T09:30:52.452Z,54.80
2023-02-03T09:33:27.968Z,52.60
2023-02-03T09:36:04.015Z,51.90
2023-02-03T09:38:39.023Z,49.70
2023-02-03T09:41:51.915Z,49.70
2023-02-03T09:44:37.441Z,49.20
2023-02-03T09:47:18.812Z,49.10
2023-02-03T09:50:07.882Z,49.40
2023-02-03T09:52:44.369Z,48.70
2023-02-03T09:55:34.494Z,48.10
2023-02-03T09:58:13.068Z,47.00
2023-02-03T10:01:01.663Z,47.40
2023-02-03T10:03:51.558Z,46.20
2023-02-03T10:06:42.068Z,46.80
2023-02-03T10:09:47.288Z,47.60
2023-02-03T10:12:50.846Z,47.20
2023-02-03T10:16:06.463Z,47.10
2023-02-03T10:18:51.742Z,45.80
2023-02-03T10:21:40.604Z,46.20
2023-02-03T10:24:43.185Z,44.40
2023-02-03T10:27:21.921Z,43.50
2023-02-03T10:30:02.153Z,42.80
2023-02-03T10:32:37.775Z,43.40
2023-02-03T10:35:14.257Z,42.70
2023-02-03T10:37:53.468Z,42.70
2023-02-03T10:40:29.361Z,42.50
2023-02-03T10:43:23.004Z,41.20
2023-02-03T10:45:59.653Z,40.80
2023-02-03T10:48:34.569Z,41.50
2023-02-03T10:51:18.498Z,40.80
2023-02-03T10:53:53.944Z,40.50
2023-02-03T10:56:37.143Z,42.20
2023-02-03T10:59:30.589Z,42.20
2023-02-03T11:02:29.432Z,40.00
2023-02-03T11:05:16.698Z,39.90
2023-02-03T11:07:52.545Z,39.60
2023-02-03T11:10:39.115Z,39.10
2023-02-03T11:13:26.495Z,39.10
2023-02-03T11:16:11.857Z,39.40
2023-02-03T11:18:59.292Z,39.20
2023-02-03T11:21:45.379Z,38.30
2023-02-03T11:24:26.286Z,38.20
2023-02-03T11:27:13.144Z,38.70
2023-02-03T11:29:52.175Z,39.40
2023-02-03T11:32:36.670Z,38.40
2023-02-03T11:35:30.885Z,39.10
2023-02-03T11:38:33.092Z,38.10
2023-02-03T11:41:23.973Z,37.70
2023-02-03T11:43:59.083Z,39.20
2023-02-03T11:46:38.643Z,38.50
2023-02-03T11:50:12.036Z,37.50
2023-02-03T11:53:24.123Z,38.00
2023-02-03T11:56:36.721Z,37.80
2023-02-03T11:59:30.479Z,38.10
2023-02-03T12:02:56.680Z,37.80
2023-02-03T12:06:00.104Z,37.90
2023-02-03T12:09:26.825Z,37.60
2023-02-03T12:12:39.916Z,37.60
2023-02-03T12:15:46.849Z,35.80
2023-02-03T12:18:56.909Z,36.10
2023-02-03T12:21:47.773Z,36.40
2023-02-03T12:24:47.881Z,36.10
2023-02-03T12:27:33.761Z,36.70
2023-02-03T12:30:31.069Z,36.30
2023-02-03T12:33:20.651Z,37.50
2023-02-03T12:36:10.677Z,36.50
2023-02-03T12:39:00.539Z,36.50
2023-02-03T12:41:42.045Z,37.00
2023-02-03T12:44:24.230Z,36.80
2023-02-03T12:47:21.048Z,36.70
2023-02-03T12:50:04.734Z,36.60
2023-02-03T12:52:47.033Z,36.50
2023-02-03T12:56:06.863Z,36.50
2023-02-03T12:58:52.765Z,37.90
2023-02-03T13:02:00.655Z,37.80
2023-02-03T13:04:56.008Z,38.00
2023-02-03T13:07:51.314Z,37.70
2023-02-03T13:10:40.132Z,36.60
2023-02-03T13:13:23.862Z,37.90
2023-02-03T13:15:59.871Z,37.50
2023-02-03T13:18:52.449Z,37.40
2023-02-03T13:21:27.711Z,37.40
2023-02-03T13:24:04.933Z,37.30
2023-02-03T13:27:09.168Z,36.40
2023-02-03T13:30:24.575Z,36.40
2023-02-03T13:33:54.673Z,36.90
2023-02-03T13:37:06.361Z,36.90
2023-02-03T13:40:19.703Z,37.60
2023-02-03T13:43:00.904Z,37.70
2023-02-03T13:45:48.192Z,37.90
2023-02-03T13:48:27.802Z,37.90
2023-02-03T13:51:15.113Z,38.00
2023-02-03T13:53:52.812Z,38.00
2023-02-03T13:56:28.646Z,38.00
2023-02-03T13:59:49.662Z,37.80
2023-02-03T14:02:24.498Z,37.90
2023-02-03T14:05:00.083Z,37.80
2023-02-03T14:07:40.968Z,37.90
2023-02-03T14:10:24.266Z,38.00
2023-02-03T14:13:00.169Z,38.20
2023-02-03T14:15:36.494Z,38.00
2023-02-03T14:18:33.647Z,38.00
2023-02-03T14:21:22.451Z,38.20
2023-02-03T14:24:07.613Z,37.70
2023-02-03T14:26:46.566Z,37.70
2023-02-03T14:29:35.089Z,38.00
2023-02-03T14:32:12.355Z,38.00
2023-02-03T14:34:49.721Z,38.10
2023-02-03T14:37:27.901Z,38.50
2023-02-03T14:40:48.247Z,38.70
2023-02-03T14:43:40.149Z,39.20
2023-02-03T14:46:48.104Z,39.00
2023-02-03T14:49:56.858Z,39.00
2023-02-03T14:53:12.216Z,38.80
2023-02-03T14:56:28.688Z,39.00
2023-02-03T14:59:09.711Z,39.10
2023-02-03T15:01:44.787Z,39.10
2023-02-03T15:04:19.795Z,38.90
2023-02-03T15:06:54.764Z,39.40
2023-02-03T15:09:51.522Z,39.20
2023-02-03T15:12:27.954Z,39.40
2023-02-03T15:15:31.054Z,39.30
2023-02-03T15:18:31.270Z,39.60
2023-02-03T15:21:07.007Z,39.40
2023-02-03T15:23:47.906Z,39.50
2023-02-03T15:26:27.720Z,40.10
2023-02-03T15:29:04.995Z,39.70
2023-02-03T15:31:48.802Z,39.90
2023-02-03T15:34:36.111Z,40.20
2023-02-03T15:37:53.279Z,40.20
2023-02-03T15:40:38.483Z,40.00
2023-02-03T15:43:27.551Z,40.30
2023-02-03T15:46:22.461Z,40.40
2023-02-03T15:49:18.146Z,40.20
2023-02-03T15:52:19.929Z,40.30
2023-02-03T15:55:10.458Z,40.30
2023-02-03T15:57:48.357Z,40.70
2023-02-03T16:00:38.163Z,40.70
2023-02-03T16:03:21.456Z,40.90
2023-02-03T16:05:56.394Z,41.50
2023-02-03T16:08:46.086Z,42.30
2023-02-03T16:11:31.355Z,43.70
2023-02-03T16:14:11.205Z,44.90
2023-02-03T16:17:04.335Z,45.90
2023-02-03T16:19:43.668Z,47.20
2023-02-03T16:22:32.554Z,48.10
2023-02-03T16:25:25.838Z,47.90
2023-02-03T16:28:31.017Z,48.70
2023-02-03T16:31:40.157Z,49.20
2023-02-03T16:34:37.651Z,50.10
2023-02-03T16:37:41.956Z,50.30
2023-02-03T16:40:41.672Z,51.40
2023-02-03T16:43:36.012Z,51.50
2023-02-03T16:46:31.030Z,52.30
2023-02-03T16:49:24.263Z,52.10
2023-02-03T16:51:59.219Z,52.00
2023-02-03T16:54:34.067Z,52.60
2023-02-03T16:57:09.002Z,53.00
2023-02-03T16:59:44.415Z,52.30
2023-02-03T17:02:19.437Z,52.50
2023-02-03T17:04:54.358Z,53.30
2023-02-03T17:07:29.212Z,52.90
2023-02-03T17:10:04.263Z,52.60
2023-02-03T17:12:39.203Z,52.00
2023-02-03T17:15:14.973Z,51.90
2023-02-03T17:17:49.850Z,51.60
2023-02-03T17:20:24.887Z,51.60
2023-02-03T17:22:59.905Z,51.30
2023-02-03T17:25:36.335Z,50.60
2023-02-03T17:28:13.698Z,50.60
2023-02-03T17:31:04.989Z,50.80
2023-02-03T17:33:40.028Z,50.50
2023-02-03T17:36:17.997Z,49.90
2023-02-03T17:53:22.857Z,49.20
2023-02-03T17:55:57.712Z,49.50
2023-02-03T17:58:32.694Z,48.90
2023-02-03T18:01:18.083Z,48.60
2023-02-03T18:03:57.117Z,48.50
2023-02-03T18:06:35.095Z,48.00
2023-02-03T18:09:10.481Z,47.70
2023-02-03T18:11:46.055Z,47.30
2023-02-03T18:14:21.035Z,47.40
2023-02-03T18:16:56.095Z,47.60
2023-02-03T18:19:31.026Z,47.20
2023-02-03T18:22:05.925Z,47.20
2023-02-03T18:24:44.792Z,47.00
2023-02-03T18:27:19.947Z,47.10
2023-02-03T18:29:54.886Z,47.00
2023-02-03T18:32:29.783Z,46.80
2023-02-03T18:35:06.698Z,46.30
2023-02-03T18:37:41.555Z,47.30
2023-02-03T18:40:16.755Z,47.90
2023-02-03T18:42:52.089Z,48.30
2023-02-03T18:45:27.224Z,48.50
2023-02-03T18:48:02.164Z,49.00
2023-02-03T18:50:37.042Z,49.80
2023-02-03T18:53:11.991Z,50.40
2023-02-03T18:55:47.082Z,50.80
2023-02-03T18:58:22.070Z,51.20
2023-02-03T19:00:58.787Z,51.70
2023-02-03T19:03:34.782Z,51.50
2023-02-03T19:06:10.514Z,50.80
2023-02-03T19:08:47.577Z,52.10
2023-02-03T19:11:23.049Z,52.10
2023-02-03T19:13:57.962Z,52.10
2023-02-03T19:16:32.875Z,52.30
2023-02-03T19:19:07.802Z,52.20
2023-02-03T19:21:42.670Z,52.00
2023-02-03T19:24:19.347Z,53.00
2023-02-03T19:26:55.473Z,53.50
2023-02-03T19:29:30.344Z,54.10
2023-02-03T19:32:06.702Z,54.70
2023-02-03T19:34:42.048Z,54.70
2023-02-03T19:37:16.994Z,55.30
2023-02-03T19:39:53.080Z,56.10
2023-02-03T19:42:27.999Z,55.70
2023-02-03T19:45:02.934Z,55.60
2023-02-03T19:47:38.164Z,55.20
2023-02-03T19:50:13.073Z,55.30
2023-02-03T19:52:49.075Z,54.50
2023-02-03T19:55:24.099Z,54.80
2023-02-03T19:58:00.148Z,54.50
2023-02-03T20:00:35.482Z,55.60
2023-02-03T20:03:11.022Z,56.10
2023-02-03T20:05:46.779Z,56.60
2023-02-03T20:08:21.642Z,55.90
2023-02-03T20:10:56.603Z,55.20
2023-02-03T20:13:31.925Z,55.50
2023-02-03T20:16:07.008Z,55.00
2023-02-03T20:18:42.099Z,55.10
2023-02-03T20:21:17.034Z,54.70
2023-02-03T20:23:53.605Z,54.60
2023-02-03T20:26:28.622Z,54.60
2023-02-03T20:29:04.301Z,54.20
2023-02-03T20:31:39.239Z,54.30
2023-02-03T20:34:14.152Z,53.90
2023-02-03T20:36:49.120Z,53.90
2023-02-03T20:39:24.235Z,59.60
2023-02-03T20:41:59.139Z,62.10
2023-02-03T20:44:34.027Z,63.60
2023-02-03T20:47:12.639Z,64.30
2023-02-03T20:49:49.388Z,66.10
2023-02-03T20:52:24.334Z,64.90
2023-02-03T20:54:59.173Z,63.50
2023-02-03T20:57:34.134Z,61.20
2023-02-03T21:00:22.093Z,60.50
2023-02-03T21:03:15.449Z,58.90
2023-02-03T21:05:50.823Z,58.60
2023-02-03T21:08:27.400Z,55.50
2023-02-03T21:11:02.687Z,55.40
2023-02-03T21:13:38.703Z,55.80
2023-02-03T21:16:20.971Z,55.20
2023-02-03T21:19:02.797Z,53.90
2023-02-03T21:21:42.159Z,53.60
2023-02-03T21:24:28.588Z,53.60
2023-02-03T21:27:24.529Z,53.80
2023-02-03T21:30:03.584Z,53.80
2023-02-03T21:32:40.779Z,53.90
2023-02-03T21:35:34.943Z,53.20
2023-02-03T21:38:39.369Z,53.40
2023-02-03T21:41:19.906Z,53.20
2023-02-03T21:43:57.444Z,52.70
2023-02-03T21:46:33.788Z,53.20
2023-02-03T21:49:15.263Z,55.00
2023-02-03T21:51:50.504Z,64.20
2023-02-03T21:54:33.511Z,73.60
2023-02-03T21:57:15.277Z,76.90
2023-02-03T21:59:50.232Z,80.20
2023-02-03T22:02:58.677Z,82.20
2023-02-03T22:05:35.427Z,82.60
2023-02-03T22:08:20.074Z,83.30
2023-02-03T22:10:55.104Z,85.10
2023-02-03T22:13:30.222Z,86.00
2023-02-03T22:16:05.789Z,87.70
2023-02-03T22:18:43.750Z,87.00
2023-02-03T22:21:19.200Z,87.80
2023-02-03T22:23:54.637Z,88.30
2023-02-03T22:26:29.563Z,88.20
2023-02-03T22:29:05.571Z,88.90
2023-02-03T22:31:42.688Z,88.80
2023-02-03T22:34:19.088Z,88.90
2023-02-03T22:36:54.010Z,88.90
2023-02-03T22:39:28.897Z,88.40
2023-02-03T22:42:04.038Z,88.40
2023-02-03T22:44:38.933Z,87.60
2023-02-03T22:47:14.496Z,87.40
2023-02-03T22:49:50.226Z,87.10
2023-02-03T22:52:25.151Z,87.30
2023-02-03T22:55:00.229Z,87.70
2023-02-03T22:57:35.804Z,87.00
2023-02-03T23:00:11.925Z,86.40
2023-02-03T23:02:47.540Z,86.60
2023-02-03T23:05:22.993Z,86.00
2023-02-03T23:07:57.935Z,84.10
2023-02-03T23:10:33.168Z,83.70
2023-02-03T23:13:08.253Z,82.60
2023-02-03T23:15:43.167Z,82.30
2023-02-03T23:18:18.092Z,82.50
2023-02-03T23:20:53.003Z,82.40
2023-02-03T23:23:27.869Z,82.90
2023-02-03T23:26:02.769Z,82.70
2023-02-03T23:28:37.698Z,83.80
2023-02-03T23:31:15.111Z,83.60
2023-02-03T23:34:08.628Z,84.10
2023-02-03T23:36:43.490Z,84.40
2023-02-03T23:39:18.428Z,84.40
2023-02-03T23:41:53.370Z,84.80
2023-02-03T23:44:28.248Z,84.30
2023-02-03T23:47:03.155Z,84.40
2023-02-03T23:49:38.011Z,84.00
2023-02-03T23:52:12.971Z,84.90
2023-02-03T23:54:47.836Z,85.00
2023-02-03T23:57:22.690Z,84.80
2023-02-03T23:59:57.575Z,84.30
